createdAt,value
2022-09-28T00:00:09.845Z,99637.59
2022-09-28T00:05:15.658Z,99637.72
2022-09-28T00:10:18.489Z,99623.50
2022-09-28T00:15:21.876Z,99619.75
2022-09-28T00:20:24.537Z,99630.66
2022-09-28T00:25:28.434Z,99629.16
2022-09-28T00:30:31.112Z,99624.13
2022-09-28T00:35:34.590Z,99620.81
2022-09-28T00:40:37.290Z,99619.09
2022-09-28T00:45:40.263Z,99600.56
2022-09-28T00:50:44.135Z,99586.47
2022-09-28T00:55:52.810Z,99598.78
2022-09-28T01:00:57.582Z,99594.84
2022-09-28T01:06:02.771Z,99590.34
2022-09-28T01:11:06.084Z,99591.56
2022-09-28T01:16:42.685Z,99586.59
2022-09-28T01:22:38.616Z,99590.91
2022-09-28T01:27:43.414Z,99589.31
2022-09-28T01:33:05.634Z,99572.47
2022-09-28T01:38:18.958Z,99567.69
2022-09-28T01:43:25.906Z,99561.16
2022-09-28T01:49:09.386Z,99552.31
2022-09-28T01:54:25.062Z,99550.47
2022-09-28T01:59:30.207Z,99542.19
2022-09-28T02:04:35.488Z,99543.72
2022-09-28T02:09:56.447Z,99538.66
2022-09-28T02:15:11.197Z,99530.44
2022-09-28T02:20:14.568Z,99535.88
2022-09-28T02:25:29.289Z,99532.94
2022-09-28T02:30:34.251Z,99540.47
2022-09-28T02:35:38.709Z,99519.13
2022-09-28T02:40:44.978Z,99490.63
2022-09-28T02:46:08.983Z,99524.16
2022-09-28T02:51:38.614Z,99514.47
2022-09-28T02:57:15.572Z,99516.13
2022-09-28T03:02:26.381Z,99518.19
2022-09-28T03:07:50.678Z,99523.53
2022-09-28T03:12:54.335Z,99513.28
2022-09-28T03:17:58.663Z,99508.28
2022-09-28T03:28:24.962Z,99473.44
2022-09-28T03:33:28.038Z,99485.00
2022-09-28T03:38:30.981Z,99489.94
2022-09-28T03:43:34.550Z,99478.81
2022-09-28T03:48:38.503Z,99482.47
2022-09-28T03:53:41.282Z,99482.03
2022-09-28T03:58:44.356Z,99461.78
2022-09-28T04:03:48.480Z,99471.16
2022-09-28T04:08:51.224Z,99459.63
2022-09-28T04:13:54.394Z,99434.53
2022-09-28T04:18:59.164Z,99454.38
2022-09-28T04:24:01.928Z,99457.38
2022-09-28T04:29:17.333Z,99444.81
2022-09-28T04:34:36.471Z,99438.00
2022-09-28T04:39:44.992Z,99445.19
2022-09-28T04:44:52.590Z,99441.03
2022-09-28T04:49:55.490Z,99434.00
2022-09-28T04:55:06.921Z,99426.53
2022-09-28T05:00:11.086Z,99431.31
2022-09-28T05:05:16.331Z,99427.44
2022-09-28T05:10:41.885Z,99425.16
2022-09-28T05:15:44.774Z,99414.56
2022-09-28T05:20:47.549Z,99395.00
2022-09-28T05:25:51.333Z,99413.31
2022-09-28T05:31:05.104Z,99402.38
2022-09-28T05:36:31.317Z,99402.78
2022-09-28T05:41:34.620Z,99412.69
2022-09-28T05:46:37.587Z,99420.78
2022-09-28T05:51:40.539Z,99421.09
2022-09-28T05:56:44.689Z,99408.59
2022-09-28T06:01:47.459Z,99421.75
2022-09-28T06:06:50.315Z,99421.22
2022-09-28T06:11:53.440Z,99415.72
2022-09-28T06:17:21.958Z,99403.44
2022-09-28T06:22:33.853Z,99428.31
2022-09-28T06:27:42.924Z,99424.13
2022-09-28T06:32:45.806Z,99437.63
2022-09-28T06:37:48.579Z,99442.09
2022-09-28T06:43:01.383Z,99440.84
2022-09-28T06:48:26.895Z,99450.47
2022-09-28T06:53:29.992Z,99440.59
2022-09-28T06:58:36.580Z,99440.06
2022-09-28T07:03:40.997Z,99445.16
2022-09-28T07:08:51.598Z,99448.34
2022-09-28T07:14:24.776Z,99447.41
2022-09-28T07:19:32.433Z,99450.09
2022-09-28T07:24:35.209Z,99454.31
2022-09-28T07:30:14.341Z,99451.53
2022-09-28T07:35:35.034Z,99461.13
2022-09-28T07:40:57.338Z,99468.19
2022-09-28T07:46:00.216Z,99460.16
2022-09-28T07:51:03.336Z,99457.34
2022-09-28T07:56:17.612Z,99466.38
2022-09-28T08:01:38.629Z,99465.81
2022-09-28T08:06:42.853Z,99463.94
2022-09-28T08:11:47.552Z,99460.53
2022-09-28T08:17:19.451Z,99470.81
2022-09-28T08:22:25.960Z,99485.91
2022-09-28T08:27:31.635Z,99481.81
2022-09-28T08:32:36.119Z,99484.06
2022-09-28T08:37:57.090Z,99489.25
2022-09-28T08:44:01.190Z,99495.00
2022-09-28T08:49:30.845Z,99501.31
2022-09-28T08:55:05.129Z,99500.00
2022-09-28T09:00:49.086Z,99515.63
2022-09-28T09:06:18.148Z,99528.19
2022-09-28T09:11:55.305Z,99540.38
2022-09-28T09:17:01.192Z,99558.69
2022-09-28T09:22:27.997Z,99550.66
2022-09-28T09:27:42.726Z,99553.00
2022-09-28T09:32:55.276Z,99560.53
2022-09-28T09:38:09.791Z,99571.81
2022-09-28T09:44:02.831Z,99557.66
2022-09-28T09:49:47.070Z,99581.47
2022-09-28T09:55:05.229Z,99594.84
2022-09-28T10:00:28.784Z,99602.19
2022-09-28T10:05:43.449Z,99616.63
2022-09-28T10:10:51.330Z,99614.84
2022-09-28T10:15:55.848Z,99624.31
2022-09-28T10:21:04.471Z,99629.88
2022-09-28T10:26:38.102Z,99626.78
2022-09-28T10:31:44.920Z,99632.59
2022-09-28T10:37:01.580Z,99637.50
2022-09-28T10:42:12.899Z,99649.19
2022-09-28T10:47:15.901Z,99672.56
2022-09-28T10:52:43.156Z,99668.97
2022-09-28T10:57:53.168Z,99670.06
2022-09-28T11:02:57.394Z,99690.28
2022-09-28T11:08:07.137Z,99692.41
2022-09-28T11:13:17.790Z,99688.09
2022-09-28T11:18:32.745Z,99684.41
2022-09-28T11:23:42.519Z,99711.44
2022-09-28T11:28:54.458Z,99711.13
2022-09-28T11:34:17.411Z,99718.69
2022-09-28T11:39:51.747Z,99733.78
2022-09-28T11:45:16.881Z,99732.06
2022-09-28T11:50:35.098Z,99731.91
2022-09-28T11:55:50.924Z,99740.72
2022-09-28T12:01:04.766Z,99744.25
2022-09-28T12:06:38.079Z,99757.00
2022-09-28T12:11:44.254Z,99755.50
2022-09-28T12:17:07.752Z,99773.28
2022-09-28T12:22:32.131Z,99779.00
2022-09-28T12:27:54.483Z,99781.47
2022-09-28T12:33:05.108Z,99782.22
2022-09-28T12:38:26.050Z,99774.44
2022-09-28T12:43:43.556Z,99789.44
2022-09-28T12:54:49.255Z,99811.47
2022-09-28T13:00:04.748Z,99808.00
2022-09-28T13:05:29.103Z,99808.19
2022-09-28T13:10:57.712Z,99819.81
2022-09-28T13:16:24.280Z,99810.38
2022-09-28T13:21:44.897Z,99813.22
2022-09-28T13:26:48.092Z,99800.31
2022-09-28T13:31:57.085Z,99807.72
2022-09-28T13:37:17.229Z,99811.31
2022-09-28T13:42:42.241Z,99815.56
2022-09-28T13:47:59.839Z,99826.56
2022-09-28T13:53:47.558Z,99825.56
2022-09-28T13:58:58.389Z,99833.44
2022-09-28T14:04:19.418Z,99839.38
2022-09-28T14:09:29.875Z,99836.81
2022-09-28T14:14:49.545Z,99830.97
2022-09-28T14:20:01.582Z,99831.06
2022-09-28T14:25:15.648Z,99824.16
2022-09-28T14:30:26.905Z,99811.00
2022-09-28T14:35:59.216Z,99819.97
2022-09-28T14:41:15.576Z,99815.50
2022-09-28T14:46:18.519Z,99830.59
2022-09-28T14:51:27.057Z,99828.00
2022-09-28T14:56:33.651Z,99821.91
2022-09-28T15:01:36.495Z,99837.00
2022-09-28T15:06:49.159Z,99838.84
2022-09-28T15:11:59.012Z,99845.59
2022-09-28T15:17:09.665Z,99840.47
2022-09-28T15:22:17.099Z,99838.59
2022-09-28T15:27:19.855Z,99855.25
2022-09-28T15:32:30.134Z,99841.91
2022-09-28T15:37:40.237Z,99847.63
2022-09-28T15:42:45.601Z,99836.69
2022-09-28T15:47:48.738Z,99847.25
2022-09-28T15:53:00.990Z,99853.25
2022-09-28T15:58:08.353Z,99863.22
2022-09-28T16:03:11.001Z,99864.00
2022-09-28T16:08:24.685Z,99872.31
2022-09-28T16:13:27.498Z,99872.31
2022-09-28T16:18:31.098Z,99874.06
2022-09-28T16:23:34.680Z,99874.84
2022-09-28T16:28:37.361Z,99882.09
2022-09-28T16:33:52.926Z,99871.84
2022-09-28T16:38:56.096Z,99872.75
2022-09-28T16:44:02.351Z,99873.59
2022-09-28T16:49:07.186Z,99892.19
2022-09-28T16:54:37.391Z,99893.03
2022-09-28T16:59:40.194Z,99884.69
2022-09-28T17:04:47.517Z,99880.97
2022-09-28T17:09:50.419Z,99889.47
2022-09-28T17:14:53.125Z,99890.44
2022-09-28T17:19:56.302Z,99892.09
2022-09-28T17:24:59.134Z,99874.47
2022-09-28T17:30:02.213Z,99879.03
2022-09-28T17:35:23.642Z,99883.97
2022-09-28T17:40:28.827Z,99880.50
2022-09-28T17:45:31.817Z,99894.72
2022-09-28T17:50:35.596Z,99888.22
2022-09-28T17:55:39.481Z,99902.75
2022-09-28T18:00:42.203Z,99909.22
2022-09-28T18:05:45.619Z,99905.19
2022-09-28T18:10:48.446Z,99903.63
2022-09-28T18:15:53.039Z,99898.44
2022-09-28T18:20:55.804Z,99905.13
2022-09-28T18:25:58.503Z,99907.88
2022-09-28T18:31:07.764Z,99894.63
2022-09-28T18:36:10.487Z,99915.91
2022-09-28T18:41:16.108Z,99913.38
2022-09-28T18:46:19.466Z,99917.34
2022-09-28T18:51:22.481Z,99905.19
2022-09-28T18:56:25.964Z,99899.66
2022-09-28T19:01:30.720Z,99926.53
2022-09-28T19:06:34.876Z,99924.63
2022-09-28T19:11:37.831Z,99920.75
2022-09-28T19:16:40.474Z,99900.59
2022-09-28T19:21:46.370Z,99921.88
2022-09-28T19:26:49.268Z,99907.47
2022-09-28T19:31:52.451Z,99915.00
2022-09-28T19:36:55.158Z,99880.19
2022-09-28T19:41:59.787Z,99913.22
2022-09-28T19:47:07.215Z,99904.56
2022-09-28T19:52:18.734Z,99902.16
2022-09-28T19:57:21.987Z,99908.38
2022-09-28T20:02:24.758Z,99894.59
2022-09-28T20:07:27.427Z,99910.97
2022-09-28T20:12:30.149Z,99892.16
2022-09-28T20:17:32.859Z,99895.88
2022-09-28T20:22:35.511Z,99895.00
2022-09-28T20:27:40.077Z,99889.97
2022-09-28T20:32:46.088Z,99873.69
2022-09-28T20:37:51.561Z,99897.16
2022-09-28T20:42:55.184Z,99877.97
2022-09-28T20:47:58.061Z,99880.72
2022-09-28T20:53:01.572Z,99871.22
2022-09-28T20:58:04.945Z,99869.56
2022-09-28T21:03:08.845Z,99871.84
2022-09-28T21:08:11.790Z,99866.56
2022-09-28T21:13:14.529Z,99863.25
2022-09-28T21:18:18.298Z,99863.88
2022-09-28T21:23:24.770Z,99867.94
2022-09-28T21:28:27.758Z,99860.88
2022-09-28T21:33:30.497Z,99863.88
2022-09-28T21:38:33.733Z,99870.72
2022-09-28T21:43:37.112Z,99865.53
2022-09-28T21:48:40.140Z,99867.59
2022-09-28T21:53:43.177Z,99861.69
2022-09-28T21:58:46.144Z,99830.91
2022-09-28T22:03:50.987Z,99864.94
2022-09-28T22:08:54.040Z,99873.53
2022-09-28T22:13:59.289Z,99866.75
2022-09-28T22:19:02.230Z,99854.31
2022-09-28T22:24:07.522Z,99861.94
2022-09-28T22:29:11.139Z,99860.03
2022-09-28T22:34:13.786Z,99872.41
2022-09-28T22:39:16.536Z,99867.34
2022-09-28T22:44:20.343Z,99874.06
2022-09-28T22:49:23.156Z,99854.25
2022-09-28T22:54:25.852Z,99867.75
2022-09-28T22:59:28.482Z,99856.69
2022-09-28T23:04:32.297Z,99871.03
2022-09-28T23:09:34.974Z,99875.63
2022-09-28T23:14:37.703Z,99870.69
2022-09-28T23:19:40.323Z,99875.00
2022-09-28T23:24:42.987Z,99868.16
2022-09-28T23:29:49.428Z,99881.09
2022-09-28T23:34:52.115Z,99850.84
2022-09-28T23:39:54.892Z,99873.53
2022-09-28T23:44:57.514Z,99879.09
2022-09-28T23:50:00.186Z,99875.53
2022-09-28T23:55:02.869Z,99872.06
